createdAt,value
2019-06-01T00:01:25.931Z,100563.27
2019-06-01T00:03:52.862Z,100562.25
2019-06-01T00:06:19.744Z,100560.42
2019-06-01T00:08:47.226Z,100556.56
2019-06-01T00:11:14.524Z,100562.70
2019-06-01T00:13:41.581Z,100560.47
2019-06-01T00:16:08.582Z,100561.64
2019-06-01T00:18:35.539Z,100562.66
2019-06-01T00:21:02.804Z,100556.94
2019-06-01T00:28:23.437Z,100551.91
2019-06-01T00:30:50.397Z,100558.83
2019-06-01T00:33:17.296Z,100552.45
2019-06-01T00:35:45.313Z,100549.52
2019-06-01T00:38:12.589Z,100555.55
2019-06-01T00:40:41.660Z,100553.80
2019-06-01T00:43:08.687Z,100553.48
2019-06-01T00:45:35.875Z,100556.14
2019-06-01T00:48:02.865Z,100552.97
2019-06-01T00:50:30.138Z,100554.09
2019-06-01T00:52:57.509Z,100554.20
2019-06-01T00:55:24.422Z,100553.32
2019-06-01T00:57:51.908Z,100552.28
2019-06-01T01:00:18.960Z,100553.02
2019-06-01T01:02:45.976Z,100556.25
2019-06-01T01:05:12.986Z,100558.94
2019-06-01T01:07:39.854Z,100561.67
2019-06-01T01:10:06.742Z,100549.92
2019-06-01T01:12:33.707Z,100552.94
2019-06-01T01:15:00.658Z,100557.28
2019-06-01T01:17:27.624Z,100550.58
2019-06-01T01:19:54.603Z,100551.45
2019-06-01T01:22:21.588Z,100556.81
2019-06-01T01:24:48.448Z,100555.09
2019-06-01T01:27:15.337Z,100550.38
2019-06-01T01:29:42.313Z,100546.73
2019-06-01T01:32:09.278Z,100558.20
2019-06-01T01:34:36.205Z,100558.16
2019-06-01T01:37:03.167Z,100548.87
2019-06-01T01:39:30.117Z,100550.69
2019-06-01T01:41:58.534Z,100553.59
2019-06-01T01:44:26.706Z,100551.67
2019-06-01T01:46:54.858Z,100549.66
2019-06-01T01:49:21.896Z,100546.40
2019-06-01T01:51:50.330Z,100539.70
2019-06-01T01:54:17.353Z,100538.09
2019-06-01T01:56:44.416Z,100540.27
2019-06-01T01:59:11.285Z,100535.59
2019-06-01T02:01:38.266Z,100534.41
2019-06-01T02:04:05.160Z,100533.33
2019-06-01T02:06:32.133Z,100542.38
2019-06-01T02:08:59.408Z,100537.23
2019-06-01T02:11:26.428Z,100543.95
2019-06-01T02:13:53.651Z,100534.14
2019-06-01T02:16:24.260Z,100536.80
2019-06-01T02:18:53.846Z,100538.47
2019-06-01T02:21:19.757Z,100539.38
2019-06-01T02:23:46.696Z,100537.87
2019-06-01T02:26:13.585Z,100538.80
2019-06-01T02:28:41.448Z,100536.70
2019-06-01T02:31:08.745Z,100533.42
2019-06-01T02:33:35.686Z,100529.62
2019-06-01T02:36:03.488Z,100529.30
2019-06-01T02:38:32.312Z,100531.87
2019-06-01T02:41:01.016Z,100533.27
2019-06-01T02:43:27.769Z,100523.83
2019-06-01T02:45:56.241Z,100516.95
2019-06-01T02:48:23.374Z,100524.89
2019-06-01T02:50:50.246Z,100524.25
2019-06-01T02:53:17.180Z,100529.78
2019-06-01T02:55:44.450Z,100522.45
2019-06-01T02:58:11.502Z,100526.58
2019-06-01T03:00:38.371Z,100528.17
2019-06-01T03:03:05.233Z,100524.74
2019-06-01T03:05:32.172Z,100534.70
2019-06-01T03:07:59.374Z,100527.21
2019-06-01T03:10:26.460Z,100533.58
2019-06-01T03:12:53.351Z,100537.05
2019-06-01T03:15:20.333Z,100542.03
2019-06-01T03:17:47.205Z,100542.56
2019-06-01T03:20:14.065Z,100545.35
2019-06-01T03:22:40.964Z,100542.09
2019-06-01T03:27:35.014Z,100536.94
2019-06-01T03:30:03.955Z,100532.75
2019-06-01T03:32:36.704Z,100532.94
2019-06-01T03:35:00.516Z,100537.56
2019-06-01T03:37:27.565Z,100539.28
2019-06-01T03:39:54.528Z,100538.10
2019-06-01T03:42:21.477Z,100533.17
2019-06-01T03:44:48.670Z,100531.50
2019-06-01T03:47:15.562Z,100529.69
2019-06-01T03:49:42.457Z,100534.30
2019-06-01T03:52:09.364Z,100536.05
2019-06-01T03:54:36.320Z,100532.63
2019-06-01T03:57:03.694Z,100533.47
2019-06-01T03:59:31.414Z,100536.70
2019-06-01T04:01:58.344Z,100533.59
2019-06-01T04:04:25.238Z,100536.00
2019-06-01T04:06:53.193Z,100537.59
2019-06-01T04:09:20.223Z,100540.01
2019-06-01T04:11:47.150Z,100538.06
2019-06-01T04:14:14.021Z,100536.02
2019-06-01T04:16:40.890Z,100543.00
2019-06-01T04:19:08.046Z,100541.48
2019-06-01T04:21:35.147Z,100540.77
2019-06-01T04:24:02.117Z,100546.48
2019-06-01T04:26:29.091Z,100545.85
2019-06-01T04:28:55.962Z,100544.38
2019-06-01T04:31:22.869Z,100545.44
2019-06-01T04:33:49.755Z,100544.79
2019-06-01T04:36:16.757Z,100547.30
2019-06-01T04:38:43.693Z,100552.94
2019-06-01T04:41:11.885Z,100552.09
2019-06-01T04:43:38.930Z,100555.44
2019-06-01T04:46:06.151Z,100563.23
2019-06-01T04:48:33.315Z,100559.40
2019-06-01T04:51:00.242Z,100566.70
2019-06-01T04:53:27.144Z,100561.41
2019-06-01T04:55:54.009Z,100560.71
2019-06-01T04:58:20.993Z,100561.94
2019-06-01T05:00:47.888Z,100562.82
2019-06-01T05:03:15.419Z,100560.34
2019-06-01T05:05:43.557Z,100561.16
2019-06-01T05:08:12.624Z,100555.94
2019-06-01T05:10:39.043Z,100563.55
2019-06-01T05:13:07.253Z,100563.61
2019-06-01T05:15:34.322Z,100557.74
2019-06-01T05:18:01.629Z,100560.83
2019-06-01T05:20:28.494Z,100564.49
2019-06-01T05:22:55.366Z,100556.41
2019-06-01T05:25:22.249Z,100554.34
2019-06-01T05:27:49.206Z,100558.09
2019-06-01T05:30:16.144Z,100552.29
2019-06-01T05:32:43.040Z,100546.06
2019-06-01T05:35:09.973Z,100556.20
2019-06-01T05:37:36.846Z,100557.49
2019-06-01T05:40:03.741Z,100552.86
2019-06-01T05:42:30.698Z,100559.19
2019-06-01T05:44:59.004Z,100561.82
2019-06-01T05:47:25.893Z,100556.14
2019-06-01T05:49:52.854Z,100554.50
2019-06-01T05:52:19.824Z,100547.59
2019-06-01T05:54:46.791Z,100556.69
2019-06-01T05:57:14.711Z,100552.42
2019-06-01T05:59:42.888Z,100549.41
2019-06-01T06:02:09.774Z,100551.14
2019-06-01T06:04:36.985Z,100552.80
2019-06-01T06:07:03.988Z,100551.83
2019-06-01T06:09:30.849Z,100552.08
2019-06-01T06:11:57.739Z,100552.98
2019-06-01T06:14:24.611Z,100557.15
2019-06-01T06:16:51.478Z,100552.55
2019-06-01T06:19:21.118Z,100553.70
2019-06-01T06:21:47.082Z,100562.02
2019-06-01T06:24:14.318Z,100556.52
2019-06-01T06:26:41.364Z,100560.05
2019-06-01T06:29:08.320Z,100556.09
2019-06-01T06:31:35.288Z,100560.74
2019-06-01T06:34:02.260Z,100559.83
2019-06-01T06:36:29.194Z,100556.20
2019-06-01T06:38:56.141Z,100557.54
2019-06-01T06:41:24.341Z,100558.37
2019-06-01T06:43:51.350Z,100554.27
2019-06-01T06:46:20.678Z,100555.70
2019-06-01T06:48:47.713Z,100553.87
2019-06-01T06:51:15.125Z,100558.70
2019-06-01T06:53:42.138Z,100550.53
2019-06-01T06:56:09.075Z,100552.27
2019-06-01T06:58:35.963Z,100557.64
2019-06-01T07:01:03.938Z,100557.62
2019-06-01T07:03:30.865Z,100560.50
2019-06-01T07:05:57.813Z,100557.64
2019-06-01T07:08:25.890Z,100566.22
2019-06-01T07:10:52.997Z,100571.83
2019-06-01T07:13:21.215Z,100579.81
2019-06-01T07:15:48.258Z,100578.68
2019-06-01T07:18:15.202Z,100588.78
2019-06-01T07:20:42.152Z,100587.12
2019-06-01T07:23:09.153Z,100588.84
2019-06-01T07:25:36.157Z,100595.20
2019-06-01T07:28:03.145Z,100592.03
2019-06-01T07:30:30.159Z,100592.53
2019-06-01T07:32:57.087Z,100590.38
2019-06-01T07:35:24.434Z,100597.49
2019-06-01T07:37:51.422Z,100604.92
2019-06-01T07:40:18.393Z,100597.37
2019-06-01T07:42:45.328Z,100591.66
2019-06-01T07:45:12.206Z,100598.50
2019-06-01T07:47:39.093Z,100598.27
2019-06-01T07:50:06.052Z,100597.02
2019-06-01T07:52:34.092Z,100591.30
2019-06-01T07:55:01.047Z,100602.33
2019-06-01T07:57:27.932Z,100607.37
2019-06-01T07:59:54.858Z,100600.48
2019-06-01T08:02:25.316Z,100596.82
2019-06-01T08:04:54.003Z,100603.16
2019-06-01T08:07:18.927Z,100590.64
2019-06-01T08:09:45.867Z,100577.58
2019-06-01T08:12:12.739Z,100573.14
2019-06-01T08:14:39.935Z,100566.91
2019-06-01T08:17:06.826Z,100555.86
2019-06-01T08:19:33.788Z,100557.20
2019-06-01T08:22:00.727Z,100551.11
2019-06-01T08:24:28.644Z,100545.70
2019-06-01T08:26:55.836Z,100547.78
2019-06-01T08:29:22.802Z,100545.00
2019-06-01T08:31:49.752Z,100539.52
2019-06-01T08:34:16.688Z,100535.73
2019-06-01T08:36:43.630Z,100538.31
2019-06-01T08:39:11.483Z,100535.36
2019-06-01T08:41:38.367Z,100528.23
2019-06-01T08:44:05.333Z,100525.83
2019-06-01T08:46:32.261Z,100526.34
2019-06-01T08:48:59.246Z,100525.04
2019-06-01T08:51:26.600Z,100522.50
2019-06-01T08:53:54.031Z,100521.32
2019-06-01T08:56:22.011Z,100518.97
2019-06-01T08:58:49.205Z,100514.45
2019-06-01T09:01:16.144Z,100510.36
2019-06-01T09:03:46.669Z,100513.89
2019-06-01T09:06:11.594Z,100512.94
2019-06-01T09:08:38.509Z,100510.69
2019-06-01T09:11:05.385Z,100507.32
2019-06-01T09:13:33.277Z,100510.31
2019-06-01T09:16:00.377Z,100504.72
2019-06-01T09:18:27.575Z,100501.58
2019-06-01T09:20:54.522Z,100504.17
2019-06-01T09:23:21.382Z,100505.80
2019-06-01T09:25:48.264Z,100506.66
2019-06-01T09:28:15.155Z,100502.87
2019-06-01T09:30:42.197Z,100502.97
2019-06-01T09:33:09.066Z,100504.57
2019-06-01T09:35:52.472Z,100504.03
2019-06-01T09:38:04.625Z,100510.38
2019-06-01T09:40:32.236Z,100499.97
2019-06-01T09:43:00.071Z,100496.62
2019-06-01T09:45:27.855Z,100496.46
2019-06-01T09:47:55.313Z,100492.72
2019-06-01T09:50:22.345Z,100494.38
2019-06-01T09:52:49.285Z,100497.53
2019-06-01T09:55:16.307Z,100495.58
2019-06-01T09:57:43.312Z,100502.77
2019-06-01T10:00:10.235Z,100499.64
2019-06-01T10:02:38.331Z,100500.75
2019-06-01T10:05:05.443Z,100498.89
2019-06-01T10:07:32.843Z,100489.17
2019-06-01T10:09:59.907Z,100491.34
2019-06-01T10:12:27.165Z,100492.39
2019-06-01T10:14:54.034Z,100497.59
2019-06-01T10:17:20.927Z,100485.89
2019-06-01T10:19:47.974Z,100488.69
2019-06-01T10:22:14.991Z,100485.17
2019-06-01T10:24:41.960Z,100487.39
2019-06-01T10:27:08.893Z,100482.89
2019-06-01T10:29:36.734Z,100476.59
2019-06-01T10:32:03.699Z,100468.07
2019-06-01T10:34:31.497Z,100462.58
2019-06-01T10:36:58.552Z,100469.00
2019-06-01T10:39:25.439Z,100465.84
2019-06-01T10:41:52.366Z,100470.48
2019-06-01T10:44:19.254Z,100464.34
2019-06-01T10:46:46.225Z,100460.25
2019-06-01T10:49:13.181Z,100458.05
2019-06-01T10:51:42.274Z,100455.16
2019-06-01T10:54:10.253Z,100457.03
2019-06-01T10:56:38.484Z,100446.73
2019-06-01T10:59:05.575Z,100449.33
2019-06-01T11:01:34.269Z,100441.54
2019-06-01T11:04:01.121Z,100437.25
2019-06-01T11:06:37.677Z,100433.54
2019-06-01T11:08:57.147Z,100438.55
2019-06-01T11:11:24.032Z,100430.30
2019-06-01T11:13:50.914Z,100432.52
2019-06-01T11:16:17.925Z,100436.77
2019-06-01T11:18:44.878Z,100439.28
2019-06-01T11:21:11.746Z,100435.38
2019-06-01T11:23:42.627Z,100437.23
2019-06-01T11:26:07.225Z,100427.02
2019-06-01T11:28:35.818Z,100426.66
2019-06-01T11:31:02.876Z,100427.31
2019-06-01T11:33:31.006Z,100426.28
2019-06-01T11:35:57.866Z,100425.53
2019-06-01T11:38:24.785Z,100413.08
2019-06-01T11:40:51.704Z,100412.83
2019-06-01T11:43:18.629Z,100411.81
2019-06-01T11:45:45.577Z,100415.16
2019-06-01T11:48:12.518Z,100410.41
2019-06-01T11:50:41.086Z,100407.91
2019-06-01T11:53:08.189Z,100410.13
2019-06-01T11:55:35.196Z,100404.73
2019-06-01T11:58:02.254Z,100407.04
2019-06-01T12:00:29.450Z,100405.64
2019-06-01T12:02:56.720Z,100410.84
2019-06-01T12:05:23.697Z,100406.68
2019-06-01T12:07:50.578Z,100410.68
2019-06-01T12:10:17.555Z,100400.09
2019-06-01T12:12:44.823Z,100394.53
2019-06-01T12:15:11.954Z,100395.47
2019-06-01T12:17:38.988Z,100389.52
2019-06-01T12:20:07.017Z,100383.68
2019-06-01T12:22:34.348Z,100386.11
2019-06-01T12:25:01.222Z,100385.27
2019-06-01T12:27:28.250Z,100375.78
2019-06-01T12:29:55.135Z,100382.28
2019-06-01T12:32:22.125Z,100375.78
2019-06-01T12:34:49.014Z,100371.98
2019-06-01T12:37:34.172Z,100371.88
2019-06-01T12:39:44.505Z,100372.47
2019-06-01T12:42:11.469Z,100363.17
2019-06-01T12:44:39.703Z,100358.56
2019-06-01T12:47:10.046Z,100358.92
2019-06-01T12:49:37.056Z,100357.62
2019-06-01T12:52:03.993Z,100361.88
2019-06-01T12:54:30.859Z,100355.28
2019-06-01T12:56:57.740Z,100352.33
2019-06-01T12:59:24.753Z,100345.37
2019-06-01T13:01:51.675Z,100346.67
2019-06-01T13:04:18.541Z,100342.02
2019-06-01T13:06:49.420Z,100339.88
2019-06-01T13:09:15.045Z,100336.83
2019-06-01T13:11:43.098Z,100332.58
2019-06-01T13:14:10.205Z,100323.48
2019-06-01T13:16:37.282Z,100322.54
2019-06-01T13:19:04.297Z,100323.28
2019-06-01T13:21:31.218Z,100322.80
2019-06-01T13:23:58.166Z,100312.98
2019-06-01T13:26:25.116Z,100304.80
2019-06-01T13:28:52.635Z,100306.20
2019-06-01T13:31:19.646Z,100299.70
2019-06-01T13:33:46.922Z,100300.55
2019-06-01T13:36:13.879Z,100299.15
2019-06-01T13:38:40.831Z,100292.30
2019-06-01T13:41:07.702Z,100287.65
2019-06-01T13:43:34.573Z,100280.41
2019-06-01T13:46:01.465Z,100277.81
2019-06-01T13:48:28.393Z,100276.52
2019-06-01T13:50:55.285Z,100277.35
2019-06-01T13:53:22.173Z,100270.38
2019-06-01T13:55:49.041Z,100268.16
2019-06-01T13:58:15.986Z,100267.77
2019-06-01T14:00:44.215Z,100262.22
2019-06-01T14:03:11.297Z,100263.87
2019-06-01T14:05:38.221Z,100265.66
2019-06-01T14:08:05.179Z,100263.87
2019-06-01T14:10:32.183Z,100270.76
2019-06-01T14:12:59.059Z,100270.76
2019-06-01T14:15:25.977Z,100265.36
2019-06-01T14:17:54.407Z,100262.77
2019-06-01T14:20:21.499Z,100259.81
2019-06-01T14:22:49.719Z,100262.86
2019-06-01T14:25:16.839Z,100254.22
2019-06-01T14:27:43.787Z,100250.78
2019-06-01T14:30:10.677Z,100246.52
2019-06-01T14:32:37.573Z,100250.32
2019-06-01T14:35:04.974Z,100256.47
2019-06-01T14:37:31.846Z,100253.48
2019-06-01T14:39:58.764Z,100247.47
2019-06-01T14:42:25.729Z,100252.56
2019-06-01T14:44:53.958Z,100251.63
2019-06-01T14:47:22.120Z,100244.67
2019-06-01T14:49:53.458Z,100242.53
2019-06-01T14:52:20.462Z,100239.93
2019-06-01T14:54:47.666Z,100245.69
2019-06-01T14:57:14.651Z,100237.53
2019-06-01T14:59:41.604Z,100238.47
2019-06-01T15:02:08.520Z,100237.98
2019-06-01T15:04:35.570Z,100239.19
2019-06-01T15:07:02.543Z,100233.43
2019-06-01T15:09:29.426Z,100225.08
2019-06-01T15:11:56.657Z,100235.62
2019-06-01T15:14:23.690Z,100234.62
2019-06-01T15:16:51.663Z,100226.92
2019-06-01T15:19:18.825Z,100230.81
2019-06-01T15:21:45.713Z,100227.93
2019-06-01T15:24:12.721Z,100226.17
2019-06-01T15:26:39.685Z,100227.27
2019-06-01T15:29:06.620Z,100218.18
2019-06-01T15:31:33.863Z,100224.12
2019-06-01T15:34:01.836Z,100229.86
2019-06-01T15:36:28.936Z,100229.86
2019-06-01T15:38:55.877Z,100224.12
2019-06-01T15:41:24.831Z,100223.27
2019-06-01T15:43:52.880Z,100221.23
2019-06-01T15:46:19.838Z,100217.44
2019-06-01T15:48:46.800Z,100211.98
2019-06-01T15:51:13.783Z,100219.33
2019-06-01T15:53:40.820Z,100212.93
2019-06-01T15:56:07.690Z,100215.04
2019-06-01T15:58:34.550Z,100215.22
2019-06-01T16:01:01.452Z,100214.28
2019-06-01T16:03:28.322Z,100213.72
2019-06-01T16:05:55.205Z,100212.03
2019-06-01T16:08:22.161Z,100204.83
2019-06-01T16:10:49.147Z,100211.33
2019-06-01T16:13:17.173Z,100204.98
2019-06-01T16:15:44.124Z,100196.37
2019-06-01T16:18:11.157Z,100200.34
2019-06-01T16:20:38.105Z,100197.03
2019-06-01T16:23:05.313Z,100196.75
2019-06-01T16:25:32.372Z,100196.75
2019-06-01T16:28:00.737Z,100198.15
2019-06-01T16:30:27.913Z,100198.25
2019-06-01T16:32:56.394Z,100195.65
2019-06-01T16:35:23.407Z,100193.05
2019-06-01T16:37:50.669Z,100195.01
2019-06-01T16:40:17.543Z,100190.75
2019-06-01T16:42:44.413Z,100189.45
2019-06-01T16:45:11.356Z,100191.22
2019-06-01T16:47:38.255Z,100190.40
2019-06-01T16:50:05.872Z,100192.05
2019-06-01T16:52:32.876Z,100184.81
2019-06-01T16:55:00.480Z,100181.51
2019-06-01T16:57:27.617Z,100178.91
2019-06-01T16:59:54.533Z,100181.02
2019-06-01T17:02:21.489Z,100178.52
2019-06-01T17:04:48.445Z,100175.02
2019-06-01T17:07:15.759Z,100177.97
2019-06-01T17:09:42.677Z,100172.41
2019-06-01T17:12:09.630Z,100175.56
2019-06-01T17:14:36.605Z,100175.11
2019-06-01T17:17:03.547Z,100177.22
2019-06-01T17:19:31.504Z,100176.87
2019-06-01T17:21:59.385Z,100179.11
2019-06-01T17:24:26.561Z,100177.81
2019-06-01T17:26:53.476Z,100183.92
2019-06-01T17:29:20.335Z,100178.72
2019-06-01T17:31:54.536Z,100181.33
2019-06-01T17:34:15.808Z,100180.48
2019-06-01T17:36:42.801Z,100179.87
2019-06-01T17:39:09.687Z,100175.13
2019-06-01T17:41:36.752Z,100181.98
2019-06-01T17:44:04.744Z,100179.37
2019-06-01T17:46:31.763Z,100173.73
2019-06-01T17:48:59.940Z,100177.98
2019-06-01T17:51:28.018Z,100173.38
2019-06-01T17:53:54.970Z,100168.73
2019-06-01T17:56:21.838Z,100167.44
2019-06-01T17:58:48.729Z,100167.44
2019-06-01T18:01:15.609Z,100164.84
2019-06-01T18:03:42.526Z,100166.14
2019-06-01T18:06:09.918Z,100166.23
2019-06-01T18:08:37.190Z,100168.94
2019-06-01T18:11:04.269Z,100167.25
2019-06-01T18:13:31.501Z,100160.02
2019-06-01T18:15:58.485Z,100165.66
2019-06-01T18:18:25.796Z,100162.22
2019-06-01T18:20:53.049Z,100169.30
2019-06-01T18:23:19.917Z,100170.22
2019-06-01T18:25:47.141Z,100167.27
2019-06-01T18:28:18.650Z,100169.50
2019-06-01T18:30:42.621Z,100166.91
2019-06-01T18:33:11.065Z,100171.36
2019-06-01T18:35:38.233Z,100166.27
2019-06-01T18:38:06.082Z,100171.91
2019-06-01T18:40:34.089Z,100170.81
2019-06-01T18:43:01.007Z,100172.47
2019-06-01T18:45:27.944Z,100172.11
2019-06-01T18:47:54.931Z,100177.41
2019-06-01T18:50:21.865Z,100175.66
2019-06-01T18:52:48.755Z,100171.37
2019-06-01T18:55:15.709Z,100172.66
2019-06-01T18:57:42.596Z,100172.21
2019-06-01T19:00:12.202Z,100175.16
2019-06-01T19:02:38.604Z,100174.16
2019-06-01T19:05:06.868Z,100174.61
2019-06-01T19:07:33.964Z,100177.66
2019-06-01T19:10:00.930Z,100176.36
2019-06-01T19:12:28.221Z,100173.41
2019-06-01T19:14:55.366Z,100183.80
2019-06-01T19:17:22.239Z,100185.55
2019-06-01T19:19:50.150Z,100184.00
2019-06-01T19:22:20.129Z,100189.39
2019-06-01T19:24:47.088Z,100190.88
2019-06-01T19:27:14.999Z,100193.29
2019-06-01T19:29:42.334Z,100190.14
2019-06-01T19:32:09.324Z,100191.28
2019-06-01T19:34:36.258Z,100190.17
2019-06-01T19:37:03.417Z,100194.98
2019-06-01T19:39:30.304Z,100204.26
2019-06-01T19:41:57.292Z,100200.95
2019-06-01T19:44:24.261Z,100199.00
2019-06-01T19:46:51.331Z,100207.08
2019-06-01T19:49:19.003Z,100202.30
2019-06-01T19:51:46.134Z,100206.57
2019-06-01T19:54:13.104Z,100210.75
2019-06-01T19:56:40.068Z,100203.70
2019-06-01T19:59:07.116Z,100204.34
2019-06-01T20:01:34.101Z,100206.13
2019-06-01T20:04:01.347Z,100207.42
2019-06-01T20:06:28.237Z,100210.28
2019-06-01T20:08:55.572Z,100210.19
2019-06-01T20:11:22.508Z,100215.28
2019-06-01T20:13:49.742Z,100215.38
2019-06-01T20:16:16.790Z,100214.81
2019-06-01T20:18:43.978Z,100216.77
2019-06-01T20:21:11.757Z,100209.44
2019-06-01T20:23:38.944Z,100210.56
2019-06-01T20:26:05.855Z,100210.73
2019-06-01T20:28:32.902Z,100213.89
2019-06-01T20:30:59.782Z,100211.55
2019-06-01T20:34:43.190Z,100208.25
2019-06-01T20:37:10.085Z,100209.27
2019-06-01T20:39:37.446Z,100210.18
2019-06-01T20:42:20.243Z,100209.38
2019-06-01T20:44:33.653Z,100216.59
2019-06-01T20:47:00.605Z,100217.49
2019-06-01T20:49:27.545Z,100208.61
2019-06-01T20:51:54.949Z,100213.48
2019-06-01T20:54:23.163Z,100207.72
2019-06-01T20:56:51.347Z,100209.20
2019-06-01T20:59:20.250Z,100209.83
2019-06-01T21:01:46.905Z,100210.85
2019-06-01T21:04:14.108Z,100212.59
2019-06-01T21:06:41.180Z,100217.23
2019-06-01T21:09:08.064Z,100214.56
2019-06-01T21:11:35.190Z,100209.47
2019-06-01T21:14:02.474Z,100211.88
2019-06-01T21:16:29.402Z,100207.77
2019-06-01T21:18:56.369Z,100214.42
2019-06-01T21:21:24.656Z,100211.38
2019-06-01T21:23:51.955Z,100212.95
2019-06-01T21:26:19.004Z,100215.18
2019-06-01T21:28:46.036Z,100222.06
2019-06-01T21:31:13.347Z,100220.47
2019-06-01T21:33:40.306Z,100214.12
2019-06-01T21:36:07.260Z,100218.16
2019-06-01T21:38:36.119Z,100211.64
2019-06-01T21:41:02.773Z,100212.12
2019-06-01T21:43:35.221Z,100216.81
2019-06-01T21:45:58.622Z,100212.12
2019-06-01T21:48:25.906Z,100215.07
2019-06-01T21:50:52.856Z,100212.56
2019-06-01T21:53:19.977Z,100207.73
2019-06-01T21:55:47.026Z,100212.06
2019-06-01T21:58:13.985Z,100214.40
2019-06-01T22:00:40.962Z,100216.73
2019-06-01T22:03:09.465Z,100217.34
2019-06-01T22:05:36.418Z,100216.68
2019-06-01T22:08:03.369Z,100218.53
2019-06-01T22:10:30.246Z,100217.58
2019-06-01T22:12:57.140Z,100215.83
2019-06-01T22:15:24.028Z,100213.61
2019-06-01T22:17:50.985Z,100214.53
2019-06-01T22:20:17.896Z,100211.19
2019-06-01T22:22:44.812Z,100210.06
2019-06-01T22:25:12.101Z,100215.77
2019-06-01T22:27:39.068Z,100214.66
2019-06-01T22:30:06.405Z,100212.75
2019-06-01T22:32:33.273Z,100217.76
2019-06-01T22:35:00.161Z,100217.59
2019-06-01T22:37:28.265Z,100216.22
2019-06-01T22:39:55.299Z,100220.94
2019-06-01T22:42:22.207Z,100219.12
2019-06-01T22:44:49.129Z,100219.87
2019-06-01T22:47:16.037Z,100217.67
2019-06-01T22:49:42.925Z,100217.72
2019-06-01T22:52:09.896Z,100217.20
2019-06-01T22:54:36.775Z,100217.66
2019-06-01T22:57:03.664Z,100213.13
2019-06-01T22:59:30.598Z,100217.86
2019-06-01T23:01:57.484Z,100217.95
2019-06-01T23:04:25.056Z,100217.02
2019-06-01T23:06:52.059Z,100215.20
2019-06-01T23:09:21.024Z,100215.72
2019-06-01T23:11:48.032Z,100211.31
2019-06-01T23:14:14.922Z,100212.61
2019-06-01T23:16:41.822Z,100208.65
2019-06-01T23:19:08.772Z,100210.61
2019-06-01T23:21:35.667Z,100208.58
2019-06-01T23:24:02.554Z,100204.58
2019-06-01T23:26:30.284Z,100209.03
2019-06-01T23:28:57.264Z,100197.77
2019-06-01T23:31:24.353Z,100195.63
2019-06-01T23:33:51.397Z,100195.59
2019-06-01T23:36:18.273Z,100191.12
2019-06-01T23:38:45.151Z,100191.38
2019-06-01T23:41:12.024Z,100192.42
2019-06-01T23:43:38.977Z,100186.87
2019-06-01T23:46:06.242Z,100189.98
2019-06-01T23:48:34.094Z,100190.74
2019-06-01T23:51:01.234Z,100193.34
2019-06-01T23:53:29.600Z,100191.14
2019-06-01T23:55:56.552Z,100192.42
2019-06-01T23:58:24.018Z,100189.68
